createdAt,value
2017-07-10T00:01:00.790Z,71.9
2017-07-10T00:02:05.983Z,72.0
2017-07-10T00:03:11.300Z,72.0
2017-07-10T00:04:16.326Z,72.0
2017-07-10T00:05:22.085Z,72.0
2017-07-10T00:06:29.317Z,72.0
2017-07-10T00:07:34.553Z,72.0
2017-07-10T00:08:42.204Z,72.2
2017-07-10T00:09:48.529Z,72.2
2017-07-10T00:10:56.117Z,72.2
2017-07-10T00:12:02.028Z,72.3
2017-07-10T00:13:09.357Z,72.3
2017-07-10T00:14:14.624Z,72.3
2017-07-10T00:15:20.138Z,72.3
2017-07-10T00:16:26.048Z,72.4
2017-07-10T00:17:32.350Z,72.5
2017-07-10T00:18:37.804Z,72.5
2017-07-10T00:19:44.183Z,72.5
2017-07-10T00:20:50.977Z,72.5
2017-07-10T00:21:57.183Z,72.5
2017-07-10T00:23:01.677Z,72.6
2017-07-10T00:24:08.828Z,72.5
2017-07-10T00:25:12.883Z,72.6
2017-07-10T00:26:18.210Z,72.6
2017-07-10T00:27:22.688Z,72.6
2017-07-10T00:28:29.535Z,72.6
2017-07-10T00:29:34.619Z,72.7
2017-07-10T00:30:40.847Z,72.7
2017-07-10T00:31:47.843Z,72.8
2017-07-10T00:32:53.473Z,72.8
2017-07-10T00:34:00.346Z,72.9
2017-07-10T00:35:04.856Z,72.9
2017-07-10T00:36:11.584Z,73.0
2017-07-10T00:37:20.242Z,73.0
2017-07-10T00:38:27.353Z,73.1
2017-07-10T00:39:33.358Z,73.2
2017-07-10T00:40:38.878Z,73.3
2017-07-10T00:41:44.864Z,73.2
2017-07-10T00:42:53.155Z,73.3
2017-07-10T00:43:59.063Z,73.3
2017-07-10T00:45:05.866Z,73.3
2017-07-10T00:46:11.808Z,73.4
2017-07-10T00:47:18.885Z,73.5
2017-07-10T00:48:24.239Z,73.5
2017-07-10T00:49:28.766Z,73.5
2017-07-10T00:50:33.891Z,73.5
2017-07-10T00:51:39.564Z,73.6
2017-07-10T00:52:45.333Z,73.6
2017-07-10T00:53:50.526Z,73.6
2017-07-10T00:54:55.941Z,73.5
2017-07-10T00:56:02.071Z,73.7
2017-07-10T00:57:08.548Z,73.6
2017-07-10T00:58:15.136Z,73.7
2017-07-10T00:59:22.395Z,73.7
2017-07-10T01:00:29.028Z,73.7
2017-07-10T01:01:35.893Z,73.7
2017-07-10T01:02:38.990Z,73.8
2017-07-10T01:03:45.745Z,73.8
2017-07-10T01:04:51.071Z,73.7
2017-07-10T01:05:57.938Z,73.8
2017-07-10T01:07:03.506Z,73.8
2017-07-10T01:08:11.245Z,73.8
2017-07-10T01:09:16.823Z,73.8
2017-07-10T01:10:22.712Z,73.8
2017-07-10T01:11:28.113Z,73.8
2017-07-10T01:12:35.675Z,73.8
2017-07-10T01:13:40.963Z,73.8
2017-07-10T01:14:46.916Z,73.9
2017-07-10T01:15:52.173Z,73.9
2017-07-10T01:16:58.923Z,73.9
2017-07-10T01:18:02.687Z,73.9
2017-07-10T01:19:07.937Z,74.0
2017-07-10T01:20:14.571Z,74.0
2017-07-10T01:21:20.477Z,74.0
2017-07-10T01:22:26.848Z,74.0
2017-07-10T01:23:33.496Z,74.1
2017-07-10T01:24:41.436Z,74.1
2017-07-10T01:25:48.215Z,74.2
2017-07-10T01:26:53.717Z,74.2
2017-07-10T01:28:00.940Z,74.2
2017-07-10T01:29:04.964Z,74.2
2017-07-10T01:30:10.440Z,74.2
2017-07-10T01:31:16.443Z,74.3
2017-07-10T01:32:22.533Z,74.3
2017-07-10T01:33:31.060Z,74.3
2017-07-10T01:34:38.593Z,74.4
2017-07-10T01:35:44.676Z,74.4
2017-07-10T01:36:50.521Z,74.5
2017-07-10T01:37:55.291Z,74.5
2017-07-10T01:39:02.793Z,74.5
2017-07-10T01:40:08.720Z,74.5
2017-07-10T01:41:14.959Z,74.5
2017-07-10T01:42:20.073Z,74.5
2017-07-10T01:43:27.345Z,74.5
2017-07-10T01:44:33.209Z,74.4
2017-07-10T01:45:39.967Z,74.4
2017-07-10T01:46:44.555Z,74.4
2017-07-10T01:47:51.470Z,74.5
2017-07-10T01:48:56.479Z,74.5
2017-07-10T01:50:03.186Z,74.5
2017-07-10T01:51:09.868Z,74.5
2017-07-10T01:52:15.081Z,74.5
2017-07-10T01:53:20.836Z,74.5
2017-07-10T01:54:27.785Z,74.4
2017-07-10T01:55:35.143Z,74.4
2017-07-10T01:56:41.634Z,74.4
2017-07-10T01:57:48.864Z,74.4
2017-07-10T01:58:55.491Z,74.4
2017-07-10T02:00:00.843Z,74.4
2017-07-10T02:01:10.546Z,74.4
2017-07-10T02:02:15.707Z,74.5
2017-07-10T02:03:22.207Z,74.4
2017-07-10T02:04:27.351Z,74.4
2017-07-10T02:05:33.582Z,74.4
2017-07-10T02:06:38.875Z,74.4
2017-07-10T02:07:46.146Z,74.5
2017-07-10T02:08:53.701Z,74.5
2017-07-10T02:09:59.270Z,74.5
2017-07-10T02:11:04.412Z,74.5
2017-07-10T02:12:09.523Z,74.5
2017-07-10T02:13:16.545Z,74.5
2017-07-10T02:14:23.189Z,74.5
2017-07-10T02:15:28.425Z,74.5
2017-07-10T02:16:33.518Z,74.5
2017-07-10T02:17:38.528Z,74.4
2017-07-10T02:18:43.744Z,74.3
2017-07-10T02:19:50.272Z,74.4
2017-07-10T02:20:56.027Z,74.3
2017-07-10T02:22:00.461Z,74.3
2017-07-10T02:23:06.432Z,74.3
2017-07-10T02:24:13.450Z,74.3
2017-07-10T02:25:20.831Z,74.3
2017-07-10T02:26:25.842Z,74.3
2017-07-10T02:27:32.808Z,74.2
2017-07-10T02:28:37.466Z,74.2
2017-07-10T02:29:45.121Z,74.1
2017-07-10T02:30:52.045Z,74.1
2017-07-10T02:31:58.239Z,74.1
2017-07-10T02:33:05.053Z,74.1
2017-07-10T02:34:12.211Z,74.1
2017-07-10T02:35:19.767Z,74.0
2017-07-10T02:36:28.380Z,74.0
2017-07-10T02:37:34.486Z,74.0
2017-07-10T02:38:40.112Z,74.0
2017-07-10T02:39:48.214Z,74.0
2017-07-10T02:40:55.930Z,74.0
2017-07-10T02:42:02.586Z,74.0
2017-07-10T02:43:08.673Z,74.0
2017-07-10T02:44:15.532Z,74.0
2017-07-10T02:45:20.180Z,73.9
2017-07-10T02:46:27.050Z,73.9
2017-07-10T02:47:32.577Z,73.8
2017-07-10T02:48:38.272Z,73.8
2017-07-10T02:49:45.704Z,73.7
2017-07-10T02:50:52.275Z,73.8
2017-07-10T02:51:58.593Z,73.8
2017-07-10T02:53:04.498Z,73.8
2017-07-10T02:54:10.815Z,73.7
2017-07-10T02:55:19.595Z,73.7
2017-07-10T02:56:25.548Z,73.7
2017-07-10T02:57:30.869Z,73.7
2017-07-10T02:58:38.100Z,73.8
2017-07-10T02:59:43.578Z,73.8
2017-07-10T03:00:50.364Z,73.8
2017-07-10T03:01:56.599Z,73.7
2017-07-10T03:03:01.298Z,73.8
2017-07-10T03:04:07.601Z,73.7
2017-07-10T03:05:11.835Z,73.7
2017-07-10T03:06:18.605Z,73.7
2017-07-10T03:07:22.961Z,73.7
2017-07-10T03:08:29.332Z,73.8
2017-07-10T03:09:36.091Z,73.7
2017-07-10T03:10:43.877Z,73.8
2017-07-10T03:11:49.944Z,73.8
2017-07-10T03:12:55.727Z,73.8
2017-07-10T03:14:01.448Z,73.8
2017-07-10T03:15:07.306Z,73.8
2017-07-10T03:16:14.368Z,73.8
2017-07-10T03:17:21.386Z,73.9
2017-07-10T03:18:27.124Z,73.9
2017-07-10T03:19:32.974Z,73.8
2017-07-10T03:20:39.244Z,73.8
2017-07-10T03:21:44.786Z,73.8
2017-07-10T03:22:52.637Z,73.8
2017-07-10T03:23:56.250Z,73.8
2017-07-10T03:25:03.006Z,73.8
2017-07-10T03:26:08.353Z,73.8
2017-07-10T03:27:14.148Z,73.7
2017-07-10T03:28:18.318Z,73.7
2017-07-10T03:29:24.701Z,73.7
2017-07-10T03:30:28.276Z,73.7
2017-07-10T03:31:34.302Z,73.7
2017-07-10T03:32:40.359Z,73.8
2017-07-10T03:33:48.300Z,73.9
2017-07-10T03:34:54.282Z,74.0
2017-07-10T03:35:59.374Z,74.0
2017-07-10T03:37:06.181Z,74.1
2017-07-10T03:38:13.960Z,74.1
2017-07-10T03:39:19.809Z,74.1
2017-07-10T03:40:26.675Z,74.1
2017-07-10T03:41:33.554Z,74.1
2017-07-10T03:42:40.165Z,74.1
2017-07-10T03:43:45.155Z,74.1
2017-07-10T03:44:53.759Z,74.1
2017-07-10T03:45:59.727Z,74.1
2017-07-10T03:47:03.734Z,74.1
2017-07-10T03:48:16.365Z,74.2
2017-07-10T03:49:22.676Z,74.3
2017-07-10T03:50:27.867Z,74.3
2017-07-10T03:51:34.451Z,74.3
2017-07-10T03:52:40.129Z,74.3
2017-07-10T03:53:46.810Z,74.3
2017-07-10T03:54:53.075Z,74.3
2017-07-10T03:56:02.193Z,74.4
2017-07-10T03:57:07.299Z,74.4
2017-07-10T03:58:13.490Z,74.4
2017-07-10T03:59:18.370Z,74.4
2017-07-10T04:00:23.714Z,74.4
2017-07-10T04:01:29.509Z,74.5
2017-07-10T04:02:35.338Z,74.5
2017-07-10T04:03:41.928Z,74.6
2017-07-10T04:04:48.063Z,74.6
2017-07-10T04:05:52.869Z,74.7
2017-07-10T04:06:58.780Z,74.7
2017-07-10T04:08:05.707Z,74.7
2017-07-10T04:09:10.333Z,74.7
2017-07-10T04:10:19.217Z,74.8
2017-07-10T04:11:23.583Z,74.8
2017-07-10T04:12:30.214Z,74.9
2017-07-10T04:13:36.546Z,74.9
2017-07-10T04:14:41.721Z,75.0
2017-07-10T04:15:47.043Z,75.1
2017-07-10T04:16:52.722Z,75.1
2017-07-10T04:17:57.660Z,75.1
2017-07-10T04:19:05.008Z,75.2
2017-07-10T04:20:10.805Z,75.2
2017-07-10T04:21:17.752Z,75.3
2017-07-10T04:22:23.250Z,75.3
2017-07-10T04:23:29.042Z,75.3
2017-07-10T04:24:36.355Z,75.2
2017-07-10T04:25:41.625Z,75.3
2017-07-10T04:26:49.339Z,75.4
2017-07-10T04:27:57.002Z,75.5
2017-07-10T04:29:02.067Z,75.6
2017-07-10T04:30:12.621Z,75.6
2017-07-10T04:31:18.534Z,75.6
2017-07-10T04:32:25.748Z,75.6
2017-07-10T04:33:31.172Z,75.6
2017-07-10T04:34:36.398Z,75.5
2017-07-10T04:35:42.791Z,75.4
2017-07-10T04:36:47.469Z,75.4
2017-07-10T04:37:54.630Z,75.4
2017-07-10T04:39:00.760Z,75.4
2017-07-10T04:40:06.742Z,75.4
2017-07-10T04:41:11.709Z,75.5
2017-07-10T04:42:18.266Z,75.6
2017-07-10T04:43:25.923Z,75.6
2017-07-10T04:44:31.556Z,75.6
2017-07-10T04:45:37.648Z,75.6
2017-07-10T04:46:43.668Z,75.6
2017-07-10T04:47:51.410Z,75.6
2017-07-10T04:48:57.276Z,75.6
2017-07-10T04:50:01.192Z,75.5
2017-07-10T04:51:08.786Z,75.5
2017-07-10T04:52:14.646Z,75.4
2017-07-10T04:53:19.124Z,75.3
2017-07-10T04:54:27.416Z,75.4
2017-07-10T04:55:32.927Z,75.3
2017-07-10T04:56:38.791Z,75.3
2017-07-10T04:57:44.058Z,75.3
2017-07-10T04:58:49.337Z,75.4
2017-07-10T04:59:54.942Z,75.3
2017-07-10T05:01:02.379Z,75.2
2017-07-10T05:02:09.433Z,75.2
2017-07-10T05:03:16.106Z,75.2
2017-07-10T05:04:22.168Z,75.2
2017-07-10T05:05:29.371Z,75.2
2017-07-10T05:06:33.170Z,75.2
2017-07-10T05:07:39.860Z,75.2
2017-07-10T05:08:48.828Z,75.2
2017-07-10T05:09:54.070Z,75.2
2017-07-10T05:10:58.512Z,75.4
2017-07-10T05:12:03.707Z,75.4
2017-07-10T05:13:08.911Z,75.4
2017-07-10T05:14:15.154Z,75.1
2017-07-10T05:15:20.387Z,75.1
2017-07-10T05:16:27.481Z,75.1
2017-07-10T05:17:34.143Z,75.1
2017-07-10T05:18:41.849Z,75.2
2017-07-10T05:19:48.044Z,75.1
2017-07-10T05:20:53.421Z,75.1
2017-07-10T05:21:57.829Z,75.1
2017-07-10T05:23:05.245Z,75.0
2017-07-10T05:24:11.368Z,75.0
2017-07-10T05:25:17.378Z,75.0
2017-07-10T05:26:24.143Z,75.0
2017-07-10T05:27:30.648Z,75.0
2017-07-10T05:28:36.881Z,74.9
2017-07-10T05:29:41.613Z,74.8
2017-07-10T05:30:47.346Z,74.8
2017-07-10T05:31:53.147Z,74.7
2017-07-10T05:33:00.452Z,74.7
2017-07-10T05:34:08.361Z,74.6
2017-07-10T05:35:12.149Z,74.7
2017-07-10T05:36:17.954Z,74.6
2017-07-10T05:37:24.757Z,74.7
2017-07-10T05:38:30.234Z,74.7
2017-07-10T05:39:36.076Z,74.8
2017-07-10T05:40:42.862Z,74.8
2017-07-10T05:41:46.895Z,74.9
2017-07-10T05:42:54.976Z,75.0
2017-07-10T05:44:00.868Z,75.1
2017-07-10T05:45:05.236Z,75.2
2017-07-10T05:46:12.678Z,75.3
2017-07-10T05:47:17.915Z,75.2
2017-07-10T05:48:22.901Z,75.0
2017-07-10T05:49:28.406Z,75.0
2017-07-10T05:50:33.271Z,75.0
2017-07-10T05:51:39.269Z,74.7
2017-07-10T05:52:46.915Z,74.7
2017-07-10T05:53:51.284Z,74.6
2017-07-10T05:54:57.778Z,74.3
2017-07-10T05:56:03.896Z,74.3
2017-07-10T05:57:09.189Z,74.2
2017-07-10T05:58:13.446Z,74.1
2017-07-10T05:59:18.578Z,73.9
2017-07-10T06:00:25.396Z,74.0
2017-07-10T06:01:31.709Z,73.9
2017-07-10T06:02:37.899Z,73.9
2017-07-10T06:03:44.222Z,73.9
2017-07-10T06:04:50.904Z,73.9
2017-07-10T06:05:55.519Z,73.8
2017-07-10T06:07:00.488Z,73.8
2017-07-10T06:08:06.410Z,73.8
2017-07-10T06:09:13.411Z,73.8
2017-07-10T06:10:17.230Z,73.5
2017-07-10T06:11:22.333Z,73.5
2017-07-10T06:12:27.732Z,73.3
2017-07-10T06:13:33.363Z,73.5
2017-07-10T06:14:38.013Z,73.2
2017-07-10T06:15:43.925Z,73.2
2017-07-10T06:16:49.423Z,73.4
2017-07-10T06:17:56.093Z,73.2
2017-07-10T06:19:01.148Z,73.2
2017-07-10T06:20:06.162Z,72.9
2017-07-10T06:21:11.046Z,72.9
2017-07-10T06:22:17.933Z,73.0
2017-07-10T06:23:21.935Z,73.1
2017-07-10T06:24:26.497Z,73.3
2017-07-10T06:25:31.346Z,73.2
2017-07-10T06:26:38.445Z,73.2
2017-07-10T06:27:42.942Z,73.1
2017-07-10T06:28:47.573Z,73.0
2017-07-10T06:29:52.339Z,73.0
2017-07-10T06:30:58.502Z,73.0
2017-07-10T06:32:04.452Z,73.0
2017-07-10T06:33:10.775Z,72.8
2017-07-10T06:34:17.454Z,72.8
2017-07-10T06:35:22.457Z,73.1
2017-07-10T06:36:27.877Z,73.2
2017-07-10T06:37:34.467Z,73.0
2017-07-10T06:38:39.465Z,73.2
2017-07-10T06:39:44.271Z,73.2
2017-07-10T06:40:51.464Z,73.3
2017-07-10T06:41:58.201Z,73.3
2017-07-10T06:43:04.721Z,73.2
2017-07-10T06:44:11.450Z,73.4
2017-07-10T06:45:16.576Z,73.3
2017-07-10T06:46:24.122Z,73.1
2017-07-10T06:47:30.975Z,72.9
2017-07-10T06:48:36.981Z,73.0
2017-07-10T06:49:44.480Z,73.0
2017-07-10T06:50:48.786Z,73.0
2017-07-10T06:51:55.840Z,72.9
2017-07-10T06:53:03.487Z,72.9
2017-07-10T06:54:08.018Z,72.8
2017-07-10T06:55:14.909Z,72.8
2017-07-10T06:56:20.991Z,72.6
2017-07-10T06:57:26.993Z,72.5
2017-07-10T06:58:33.028Z,72.6
2017-07-10T06:59:39.787Z,72.4
2017-07-10T07:00:45.933Z,72.4
2017-07-10T07:01:52.095Z,72.4
2017-07-10T07:02:57.511Z,72.5
2017-07-10T07:04:03.091Z,72.5
2017-07-10T07:05:08.939Z,72.6
2017-07-10T07:06:14.181Z,72.6
2017-07-10T07:07:20.498Z,72.5
2017-07-10T07:08:25.516Z,72.7
2017-07-10T07:09:33.520Z,73.0
2017-07-10T07:10:35.983Z,72.9
2017-07-10T07:11:42.035Z,73.1
2017-07-10T07:12:48.765Z,73.0
2017-07-10T07:13:53.822Z,72.9
2017-07-10T07:14:58.993Z,73.1
2017-07-10T07:16:05.782Z,73.2
2017-07-10T07:17:11.043Z,73.3
2017-07-10T07:18:16.367Z,73.3
2017-07-10T07:19:22.366Z,73.3
2017-07-10T07:20:29.536Z,73.2
2017-07-10T07:21:35.442Z,73.1
2017-07-10T07:22:43.909Z,73.1
2017-07-10T07:23:50.826Z,73.1
2017-07-10T07:24:56.351Z,73.2
2017-07-10T07:26:03.061Z,73.4
2017-07-10T07:27:09.170Z,73.5
2017-07-10T07:28:17.068Z,73.5
2017-07-10T07:29:24.051Z,73.5
2017-07-10T07:30:29.201Z,73.4
2017-07-10T07:31:34.797Z,73.6
2017-07-10T07:32:41.873Z,73.5
2017-07-10T07:33:47.713Z,73.6
2017-07-10T07:34:52.799Z,73.6
2017-07-10T07:35:58.178Z,73.6
2017-07-10T07:37:03.403Z,73.4
2017-07-10T07:38:10.860Z,73.4
2017-07-10T07:39:17.257Z,73.5
2017-07-10T07:40:23.567Z,73.5
2017-07-10T07:41:29.703Z,73.5
2017-07-10T07:42:35.854Z,73.7
2017-07-10T07:43:42.869Z,73.7
2017-07-10T07:44:51.185Z,73.7
2017-07-10T07:45:56.938Z,73.6
2017-07-10T07:47:02.770Z,73.7
2017-07-10T07:48:07.931Z,73.8
2017-07-10T07:49:15.175Z,73.8
2017-07-10T07:50:20.646Z,73.8
2017-07-10T07:51:27.281Z,73.8
2017-07-10T07:52:34.048Z,73.8
2017-07-10T07:53:40.056Z,73.9
2017-07-10T07:54:45.610Z,73.9
2017-07-10T07:55:51.766Z,73.9
2017-07-10T07:56:59.297Z,73.8
2017-07-10T07:58:04.075Z,73.8
2017-07-10T07:59:10.284Z,73.8
2017-07-10T08:00:16.736Z,73.9
2017-07-10T08:01:22.444Z,73.8
2017-07-10T08:02:27.586Z,73.8
2017-07-10T08:03:32.720Z,73.6
2017-07-10T08:04:39.050Z,73.6
2017-07-10T08:05:45.754Z,73.7
2017-07-10T08:06:54.610Z,73.6
2017-07-10T08:08:01.378Z,73.6
2017-07-10T08:09:08.615Z,73.6
2017-07-10T08:10:14.022Z,73.8
2017-07-10T08:11:21.836Z,73.8
2017-07-10T08:12:27.556Z,73.7
2017-07-10T08:13:34.134Z,73.6
2017-07-10T08:14:41.625Z,73.4
2017-07-10T08:15:45.676Z,73.3
2017-07-10T08:16:52.636Z,73.3
2017-07-10T08:17:56.829Z,73.3
2017-07-10T08:19:01.529Z,73.1
2017-07-10T08:20:09.749Z,73.1
2017-07-10T08:21:14.117Z,73.0
2017-07-10T08:22:20.477Z,72.9
2017-07-10T08:23:26.637Z,72.8
2017-07-10T08:24:33.140Z,72.8
2017-07-10T08:25:38.172Z,72.7
2017-07-10T08:26:44.749Z,72.6
2017-07-10T08:27:50.736Z,72.5
2017-07-10T08:28:56.757Z,72.5
2017-07-10T08:30:02.176Z,72.5
2017-07-10T08:31:07.429Z,72.4
2017-07-10T08:32:13.209Z,72.3
2017-07-10T08:33:19.523Z,72.4
2017-07-10T08:34:27.402Z,72.3
2017-07-10T08:35:34.161Z,72.5
2017-07-10T08:36:40.522Z,72.4
2017-07-10T08:37:48.703Z,72.5
2017-07-10T08:38:53.871Z,72.4
2017-07-10T08:40:00.461Z,72.5
2017-07-10T08:41:05.593Z,72.3
2017-07-10T08:42:11.681Z,72.2
2017-07-10T08:43:16.115Z,72.1
2017-07-10T08:44:21.578Z,72.1
2017-07-10T08:45:26.798Z,72.0
2017-07-10T08:46:32.679Z,71.9
2017-07-10T08:47:36.679Z,71.9
2017-07-10T08:48:42.806Z,71.7
2017-07-10T08:49:48.714Z,71.7
2017-07-10T08:50:55.915Z,71.8
2017-07-10T08:52:02.188Z,71.7
2017-07-10T08:53:08.049Z,71.6
2017-07-10T08:54:14.025Z,71.5
2017-07-10T08:55:20.020Z,71.4
2017-07-10T08:56:25.369Z,71.2
2017-07-10T08:57:33.697Z,71.3
2017-07-10T08:58:38.278Z,71.2
2017-07-10T08:59:42.874Z,71.1
2017-07-10T09:00:49.052Z,71.1
2017-07-10T09:01:56.422Z,71.1
2017-07-10T09:03:03.917Z,71.0
2017-07-10T09:04:12.208Z,71.3
2017-07-10T09:05:18.370Z,71.1
2017-07-10T09:06:23.944Z,71.1
2017-07-10T09:07:30.214Z,70.8
2017-07-10T09:08:35.395Z,70.7
2017-07-10T09:09:40.532Z,70.4
2017-07-10T09:10:46.906Z,70.2
2017-07-10T09:11:54.723Z,70.4
2017-07-10T09:13:01.648Z,69.9
2017-07-10T09:14:07.536Z,69.9
2017-07-10T09:15:13.991Z,69.8
2017-07-10T09:16:20.673Z,69.5
2017-07-10T09:17:25.304Z,69.3
2017-07-10T09:18:31.439Z,69.3
2017-07-10T09:19:36.523Z,69.4
2017-07-10T09:20:42.571Z,69.4
2017-07-10T09:21:49.383Z,69.4
2017-07-10T09:22:57.363Z,69.3
2017-07-10T09:24:06.245Z,69.4
2017-07-10T09:25:09.552Z,69.3
2017-07-10T09:26:15.724Z,69.2
2017-07-10T09:27:20.861Z,69.0
2017-07-10T09:28:27.742Z,68.9
2017-07-10T09:29:35.037Z,68.9
2017-07-10T09:30:41.752Z,68.9
2017-07-10T09:31:46.942Z,68.7
2017-07-10T09:32:52.758Z,68.6
2017-07-10T09:33:59.261Z,68.6
2017-07-10T09:35:05.298Z,68.5
2017-07-10T09:36:12.932Z,68.4
2017-07-10T09:37:18.917Z,68.3
2017-07-10T09:38:27.266Z,68.4
2017-07-10T09:39:35.269Z,68.3
2017-07-10T09:40:40.895Z,68.1
2017-07-10T09:41:46.679Z,67.8
2017-07-10T09:42:53.008Z,67.6
2017-07-10T09:43:58.550Z,67.5
2017-07-10T09:45:05.844Z,67.5
2017-07-10T09:46:12.095Z,67.5
2017-07-10T09:47:18.669Z,67.2
2017-07-10T09:48:23.843Z,67.1
2017-07-10T09:49:31.161Z,67.2
2017-07-10T09:50:37.944Z,67.2
2017-07-10T09:51:45.889Z,67.1
2017-07-10T09:52:51.722Z,67.0
2017-07-10T09:53:57.876Z,66.9
2017-07-10T09:55:04.458Z,66.8
2017-07-10T09:56:09.533Z,66.8
2017-07-10T09:57:14.905Z,66.6
2017-07-10T09:58:20.904Z,66.7
2017-07-10T09:59:27.300Z,66.5
2017-07-10T10:00:32.155Z,66.5
2017-07-10T10:01:38.292Z,66.5
2017-07-10T10:02:45.808Z,66.5
2017-07-10T10:03:52.875Z,66.3
2017-07-10T10:04:59.320Z,66.4
2017-07-10T10:06:05.351Z,66.3
2017-07-10T10:07:12.008Z,66.2
2017-07-10T10:08:18.325Z,66.3
2017-07-10T10:09:23.400Z,66.3
2017-07-10T10:10:30.488Z,66.2
2017-07-10T10:11:35.482Z,66.1
2017-07-10T10:12:41.988Z,66.1
2017-07-10T10:13:47.849Z,66.0
2017-07-10T10:14:51.639Z,66.0
2017-07-10T10:15:58.180Z,65.9
2017-07-10T10:17:04.001Z,65.9
2017-07-10T10:18:11.096Z,65.9
2017-07-10T10:19:17.833Z,65.9
2017-07-10T10:20:23.343Z,65.9
2017-07-10T10:21:29.365Z,65.6
2017-07-10T10:22:36.075Z,65.4
2017-07-10T10:23:43.146Z,65.5
2017-07-10T10:24:48.583Z,65.4
2017-07-10T10:25:54.461Z,65.4
2017-07-10T10:26:59.386Z,65.3
2017-07-10T10:28:05.472Z,65.3
2017-07-10T10:29:12.294Z,65.3
2017-07-10T10:30:18.906Z,65.3
2017-07-10T10:31:24.652Z,65.3
2017-07-10T10:32:29.659Z,65.2
2017-07-10T10:33:34.755Z,65.3
2017-07-10T10:34:39.368Z,65.2
2017-07-10T10:35:43.862Z,65.2
2017-07-10T10:36:51.961Z,65.2
2017-07-10T10:37:58.669Z,65.3
2017-07-10T10:39:05.911Z,65.2
2017-07-10T10:40:11.725Z,65.2
2017-07-10T10:41:17.580Z,65.1
2017-07-10T10:42:23.195Z,64.8
2017-07-10T10:43:27.977Z,64.7
2017-07-10T10:44:33.109Z,64.8
2017-07-10T10:45:39.314Z,64.9
2017-07-10T10:46:46.122Z,64.8
2017-07-10T10:47:54.158Z,64.8
2017-07-10T10:49:00.612Z,64.7
2017-07-10T10:50:09.012Z,64.7
2017-07-10T10:51:14.290Z,64.6
2017-07-10T10:52:20.227Z,64.5
2017-07-10T10:53:26.392Z,64.4
2017-07-10T10:54:32.409Z,64.1
2017-07-10T10:55:38.256Z,64.1
2017-07-10T10:56:45.414Z,64.2
2017-07-10T10:57:52.903Z,63.9
2017-07-10T10:58:57.931Z,64.0
2017-07-10T11:00:05.912Z,64.0
2017-07-10T11:01:12.179Z,64.1
2017-07-10T11:02:17.043Z,64.1
2017-07-10T11:03:23.564Z,64.2
2017-07-10T11:04:28.946Z,64.2
2017-07-10T11:05:35.950Z,64.3
2017-07-10T11:06:40.796Z,64.3
2017-07-10T11:07:47.376Z,64.2
2017-07-10T11:08:52.915Z,64.2
2017-07-10T11:09:58.603Z,64.3
2017-07-10T11:11:05.605Z,64.2
2017-07-10T11:12:11.246Z,64.3
2017-07-10T11:13:16.400Z,64.5
2017-07-10T11:14:22.582Z,64.4
2017-07-10T11:15:28.407Z,64.4
2017-07-10T11:16:35.565Z,64.5
2017-07-10T11:17:40.727Z,64.5
2017-07-10T11:18:45.555Z,64.6
2017-07-10T11:19:52.966Z,64.7
2017-07-10T11:20:57.949Z,64.7
2017-07-10T11:22:04.556Z,64.8
2017-07-10T11:23:09.304Z,64.8
2017-07-10T11:24:15.710Z,64.6
2017-07-10T11:25:21.686Z,64.6
2017-07-10T11:26:28.447Z,64.6
2017-07-10T11:27:32.888Z,64.6
2017-07-10T11:28:39.734Z,64.4
2017-07-10T11:29:45.030Z,64.3
2017-07-10T11:30:50.960Z,64.2
2017-07-10T11:31:55.315Z,64.2
2017-07-10T11:32:59.849Z,64.2
2017-07-10T11:34:06.290Z,64.2
2017-07-10T11:35:11.578Z,64.1
2017-07-10T11:36:19.971Z,64.1
2017-07-10T11:37:26.854Z,63.9
2017-07-10T11:38:36.002Z,63.8
2017-07-10T11:39:41.752Z,63.8
2017-07-10T11:40:48.146Z,63.9
2017-07-10T11:41:53.987Z,63.8
2017-07-10T11:43:00.106Z,63.9
2017-07-10T11:44:07.478Z,63.6
2017-07-10T11:45:12.168Z,63.7
2017-07-10T11:46:18.005Z,63.6
2017-07-10T11:47:23.985Z,63.5
2017-07-10T11:48:29.486Z,63.3
2017-07-10T11:49:33.966Z,63.4
2017-07-10T11:50:41.489Z,63.2
2017-07-10T11:51:47.870Z,63.3
2017-07-10T11:52:54.994Z,63.5
2017-07-10T11:54:02.328Z,63.6
2017-07-10T11:55:08.641Z,64.6
2017-07-10T11:56:13.912Z,65.5
2017-07-10T11:57:22.510Z,65.8
2017-07-10T11:58:27.648Z,66.8
2017-07-10T11:59:33.660Z,67.0
2017-07-10T12:00:38.905Z,67.3
2017-07-10T12:01:45.325Z,67.3
2017-07-10T12:02:50.590Z,67.6
2017-07-10T12:03:55.859Z,68.0
2017-07-10T12:05:02.938Z,68.2
2017-07-10T12:06:08.750Z,68.4
2017-07-10T12:07:16.018Z,68.4
2017-07-10T12:08:21.297Z,68.8
2017-07-10T12:09:26.678Z,69.0
2017-07-10T12:10:32.504Z,68.9
2017-07-10T12:11:38.913Z,68.9
2017-07-10T12:12:46.406Z,69.2
2017-07-10T12:13:53.554Z,69.1
2017-07-10T12:14:57.268Z,69.4
2017-07-10T12:16:06.533Z,69.2
2017-07-10T12:17:12.718Z,69.2
2017-07-10T12:18:18.711Z,69.1
2017-07-10T12:19:25.902Z,69.1
2017-07-10T12:20:32.967Z,69.1
2017-07-10T12:21:38.633Z,69.2
2017-07-10T12:22:45.692Z,69.3
2017-07-10T12:23:51.989Z,69.2
2017-07-10T12:24:58.169Z,69.4
2017-07-10T12:26:05.280Z,69.3
2017-07-10T12:27:10.391Z,69.1
2017-07-10T12:28:16.555Z,69.0
2017-07-10T12:29:22.423Z,69.3
2017-07-10T12:30:31.060Z,69.3
2017-07-10T12:31:38.248Z,69.2
2017-07-10T12:32:44.455Z,69.4
2017-07-10T12:33:49.380Z,69.3
2017-07-10T12:34:55.825Z,69.1
2017-07-10T12:36:02.909Z,69.4
2017-07-10T12:37:10.698Z,69.3
2017-07-10T12:38:16.705Z,69.2
2017-07-10T12:39:21.291Z,69.3
2017-07-10T12:40:26.656Z,68.9
2017-07-10T12:41:32.581Z,68.9
2017-07-10T12:42:39.443Z,68.8
2017-07-10T12:43:45.586Z,68.8
2017-07-10T12:44:50.729Z,68.7
2017-07-10T12:45:57.322Z,68.7
2017-07-10T12:47:03.804Z,68.6
2017-07-10T12:48:09.013Z,68.6
2017-07-10T12:49:14.868Z,68.8
2017-07-10T12:50:19.790Z,68.6
2017-07-10T12:51:26.601Z,68.5
2017-07-10T12:52:33.788Z,68.4
2017-07-10T12:53:40.985Z,68.5
2017-07-10T12:54:48.449Z,68.5
2017-07-10T12:55:54.329Z,68.7
2017-07-10T12:57:02.087Z,68.8
2017-07-10T12:58:09.116Z,68.7
2017-07-10T12:59:15.824Z,68.7
2017-07-10T13:00:22.752Z,68.7
2017-07-10T13:01:28.492Z,68.8
2017-07-10T13:02:35.613Z,68.9
2017-07-10T13:03:42.118Z,69.1
2017-07-10T13:04:47.117Z,69.2
2017-07-10T13:05:53.257Z,69.8
2017-07-10T13:06:59.770Z,69.7
2017-07-10T13:08:04.971Z,69.4
2017-07-10T13:09:10.193Z,69.3
2017-07-10T13:10:16.263Z,69.2
2017-07-10T13:11:22.508Z,69.1
2017-07-10T13:12:29.028Z,69.1
2017-07-10T13:13:33.532Z,69.1
2017-07-10T13:14:40.235Z,69.2
2017-07-10T13:15:48.153Z,69.5
2017-07-10T13:16:52.637Z,69.8
2017-07-10T13:18:00.218Z,69.5
2017-07-10T13:19:05.091Z,69.6
2017-07-10T13:20:11.068Z,69.4
2017-07-10T13:21:16.674Z,69.2
2017-07-10T13:22:22.915Z,69.1
2017-07-10T13:23:28.328Z,69.0
2017-07-10T13:24:35.141Z,68.7
2017-07-10T13:25:41.153Z,68.6
2017-07-10T13:26:47.654Z,68.5
2017-07-10T13:27:53.396Z,68.4
2017-07-10T13:29:00.157Z,68.4
2017-07-10T13:30:05.304Z,68.3
2017-07-10T13:31:11.527Z,68.2
2017-07-10T13:32:17.548Z,68.0
2017-07-10T13:33:25.487Z,68.1
2017-07-10T13:34:32.412Z,68.2
2017-07-10T13:35:39.672Z,68.2
2017-07-10T13:36:45.170Z,68.1
2017-07-10T13:37:50.145Z,68.1
2017-07-10T13:38:57.414Z,68.1
2017-07-10T13:40:04.360Z,68.2
2017-07-10T13:41:12.187Z,68.3
2017-07-10T13:42:18.682Z,68.2
2017-07-10T13:43:24.118Z,68.3
2017-07-10T13:44:29.553Z,68.0
2017-07-10T13:45:36.271Z,68.2
2017-07-10T13:46:42.464Z,68.0
2017-07-10T13:47:49.304Z,68.4
2017-07-10T13:48:56.084Z,68.3
2017-07-10T13:50:02.834Z,68.1
2017-07-10T13:51:08.201Z,67.9
2017-07-10T13:52:15.362Z,67.8
2017-07-10T13:53:20.395Z,67.8
2017-07-10T13:54:27.805Z,67.8
2017-07-10T13:55:35.945Z,67.7
2017-07-10T13:56:41.122Z,67.6
2017-07-10T13:57:46.996Z,67.5
2017-07-10T13:58:54.208Z,67.5
2017-07-10T13:59:57.829Z,67.5
2017-07-10T14:01:03.713Z,67.6
2017-07-10T14:02:10.521Z,67.3
2017-07-10T14:03:17.583Z,67.0
2017-07-10T14:04:23.765Z,66.8
2017-07-10T14:05:31.220Z,66.6
2017-07-10T14:06:37.728Z,66.5
2017-07-10T14:07:45.348Z,66.3
2017-07-10T14:08:53.379Z,66.1
2017-07-10T14:09:57.728Z,65.8
2017-07-10T14:11:03.914Z,65.8
2017-07-10T14:12:09.212Z,65.7
2017-07-10T14:13:14.660Z,65.5
2017-07-10T14:14:22.240Z,65.7
2017-07-10T14:15:27.522Z,65.7
2017-07-10T14:16:33.789Z,65.6
2017-07-10T14:17:40.221Z,65.4
2017-07-10T14:18:46.901Z,65.4
2017-07-10T14:19:53.430Z,65.4
2017-07-10T14:20:59.254Z,65.3
2017-07-10T14:22:06.747Z,65.3
2017-07-10T14:23:12.252Z,65.3
2017-07-10T14:24:17.194Z,65.3
2017-07-10T14:25:22.916Z,65.3
2017-07-10T14:26:28.342Z,65.2
2017-07-10T14:27:33.030Z,65.1
2017-07-10T14:28:39.151Z,64.9
2017-07-10T14:29:46.761Z,64.9
2017-07-10T14:30:51.445Z,65.0
2017-07-10T14:31:57.766Z,64.9
2017-07-10T14:33:04.197Z,64.8
2017-07-10T14:34:11.267Z,64.8
2017-07-10T14:35:16.777Z,64.7
2017-07-10T14:36:22.987Z,64.7
2017-07-10T14:37:28.774Z,64.7
2017-07-10T14:38:36.601Z,64.8
2017-07-10T14:39:43.555Z,64.8
2017-07-10T14:40:50.780Z,64.8